createdAt,value
2019-03-03T00:00:19.567Z,44.73
2019-03-03T00:02:48.237Z,41.63
2019-03-03T00:05:16.875Z,38.43
2019-03-03T00:07:45.501Z,45.03
2019-03-03T00:10:14.272Z,43.10
2019-03-03T00:12:42.900Z,40.90
2019-03-03T00:15:12.511Z,48.43
2019-03-03T00:17:41.136Z,47.23
2019-03-03T00:20:14.717Z,41.80
2019-03-03T00:22:43.356Z,43.93
2019-03-03T00:25:16.565Z,40.77
2019-03-03T00:27:45.212Z,42.57
2019-03-03T00:30:21.437Z,44.63
2019-03-03T00:32:50.112Z,41.47
2019-03-03T00:35:18.895Z,42.73
2019-03-03T00:38:00.958Z,45.13
2019-03-03T00:40:34.135Z,41.60
2019-03-03T00:43:22.234Z,59.33
2019-03-03T00:46:09.036Z,42.60
2019-03-03T00:48:39.324Z,44.53
2019-03-03T00:51:12.608Z,47.10
2019-03-03T00:53:42.948Z,47.03
2019-03-03T00:56:19.104Z,49.93
2019-03-03T00:59:06.212Z,43.80
2019-03-03T01:01:36.481Z,53.97
2019-03-03T01:04:11.215Z,40.53
2019-03-03T01:06:59.747Z,51.47
2019-03-03T01:09:41.769Z,45.90
2019-03-03T01:12:30.459Z,41.60
2019-03-03T01:15:04.692Z,53.27
2019-03-03T01:17:35.811Z,46.37
2019-03-03T01:20:11.547Z,46.47
2019-03-03T01:22:58.310Z,45.03
2019-03-03T01:25:26.987Z,47.97
2019-03-03T01:27:55.551Z,45.13
2019-03-03T01:30:24.216Z,49.37
2019-03-03T01:32:52.846Z,44.60
2019-03-03T01:35:21.460Z,43.93
2019-03-03T01:37:50.085Z,48.17
2019-03-03T01:40:18.712Z,43.50
2019-03-03T01:42:47.195Z,49.17
2019-03-03T01:45:16.369Z,44.90
2019-03-03T01:47:45.040Z,50.23
2019-03-03T01:50:14.271Z,43.77
2019-03-03T01:52:43.003Z,44.33
2019-03-03T01:55:12.728Z,48.87
2019-03-03T01:57:41.350Z,46.50
2019-03-03T02:00:24.695Z,54.87
2019-03-03T02:02:53.730Z,72.27
2019-03-03T02:05:22.399Z,52.87
2019-03-03T02:07:51.076Z,54.33
2019-03-03T02:10:21.972Z,52.13
2019-03-03T02:12:50.642Z,55.80
2019-03-03T02:15:19.439Z,50.97
2019-03-03T02:17:48.154Z,56.60
2019-03-03T02:20:16.838Z,49.67
2019-03-03T02:22:45.475Z,45.63
2019-03-03T02:25:14.957Z,48.00
2019-03-03T02:27:43.592Z,43.57
2019-03-03T02:30:20.394Z,45.13
2019-03-03T02:32:49.145Z,48.13
2019-03-03T02:35:17.884Z,55.53
2019-03-03T02:37:46.925Z,45.03
2019-03-03T02:40:20.666Z,50.77
2019-03-03T02:42:49.297Z,46.10
2019-03-03T02:45:18.443Z,47.87
2019-03-03T02:47:47.020Z,50.30
2019-03-03T02:50:16.566Z,48.63
2019-03-03T02:52:45.240Z,47.43
2019-03-03T02:55:17.371Z,54.90
2019-03-03T02:57:46.142Z,48.67
2019-03-03T03:00:24.468Z,48.63
2019-03-03T03:02:54.746Z,52.10
2019-03-03T03:05:47.227Z,60.07
2019-03-03T03:08:17.546Z,50.07
2019-03-03T03:10:47.843Z,54.20
2019-03-03T03:13:24.125Z,54.73
2019-03-03T03:15:54.330Z,48.67
2019-03-03T03:18:40.811Z,50.60
2019-03-03T03:21:11.005Z,54.57
2019-03-03T03:23:41.338Z,52.53
2019-03-03T03:26:14.610Z,53.97
2019-03-03T03:28:44.861Z,59.20
2019-03-03T03:31:20.871Z,69.97
2019-03-03T03:33:53.779Z,65.10
2019-03-03T03:36:23.978Z,72.63
2019-03-03T03:39:04.714Z,66.20
2019-03-03T03:41:34.969Z,85.43
2019-03-03T03:44:21.694Z,69.60
2019-03-03T03:47:06.832Z,73.77
2019-03-03T03:49:39.925Z,87.13
2019-03-03T03:52:10.141Z,84.80
2019-03-03T03:54:57.483Z,97.23
2019-03-03T03:57:27.750Z,101.27
2019-03-03T03:59:58.084Z,92.07
2019-03-03T04:02:28.413Z,87.97
2019-03-03T04:05:07.687Z,88.67
2019-03-03T04:07:43.999Z,83.13
2019-03-03T04:10:31.558Z,98.13
2019-03-03T04:13:01.858Z,89.73
2019-03-03T04:15:41.104Z,80.87
2019-03-03T04:18:25.031Z,69.20
2019-03-03T04:21:07.180Z,75.63
2019-03-03T04:23:50.606Z,59.53
2019-03-03T04:26:23.877Z,66.17
2019-03-03T04:28:57.008Z,64.33
2019-03-03T04:31:27.230Z,58.17
2019-03-03T04:34:13.712Z,63.97
2019-03-03T04:36:43.988Z,66.30
2019-03-03T04:39:16.949Z,69.60
2019-03-03T04:41:52.938Z,68.23
2019-03-03T04:44:23.083Z,69.00
2019-03-03T04:46:53.299Z,79.03
2019-03-03T04:49:26.470Z,81.20
2019-03-03T04:51:56.730Z,85.53
2019-03-03T04:54:30.115Z,87.97
2019-03-03T04:57:08.988Z,84.73
2019-03-03T04:59:56.284Z,81.00
2019-03-03T05:02:26.411Z,82.83
2019-03-03T05:05:09.166Z,100.63
2019-03-03T05:07:52.747Z,97.70
2019-03-03T05:10:32.303Z,108.50
2019-03-03T05:13:02.397Z,115.57
2019-03-03T05:15:46.550Z,118.87
2019-03-03T05:18:23.779Z,115.87
2019-03-03T05:20:52.461Z,117.83
2019-03-03T05:23:21.097Z,126.73
2019-03-03T05:25:49.737Z,133.80
2019-03-03T05:28:18.343Z,117.67
2019-03-03T05:30:46.950Z,130.57
2019-03-03T05:33:15.561Z,131.77
2019-03-03T05:35:44.121Z,112.20
2019-03-03T05:38:12.705Z,129.17
2019-03-03T05:40:41.229Z,151.13
2019-03-03T05:43:09.798Z,135.63
2019-03-03T05:45:38.403Z,135.10
2019-03-03T05:48:07.013Z,133.40
2019-03-03T05:50:35.572Z,139.37
2019-03-03T05:53:04.211Z,118.37
2019-03-03T05:55:32.840Z,115.87
2019-03-03T05:58:01.411Z,112.70
2019-03-03T06:00:29.971Z,99.23
2019-03-03T06:02:58.646Z,99.43
2019-03-03T06:05:27.279Z,106.83
2019-03-03T06:07:55.820Z,135.43
2019-03-03T06:10:24.436Z,92.53
2019-03-03T06:12:53.111Z,92.93
2019-03-03T06:15:21.709Z,91.73
2019-03-03T06:17:50.344Z,84.53
2019-03-03T06:20:19.025Z,76.53
2019-03-03T06:22:47.583Z,72.77
2019-03-03T06:25:19.238Z,75.57
2019-03-03T06:27:47.774Z,83.30
2019-03-03T06:30:16.499Z,75.97
2019-03-03T06:32:45.101Z,78.63
2019-03-03T06:35:14.037Z,74.17
2019-03-03T06:37:42.668Z,82.67
2019-03-03T06:40:11.808Z,92.40
2019-03-03T06:42:40.441Z,78.80
2019-03-03T06:45:13.684Z,73.10
2019-03-03T06:47:42.360Z,63.00
2019-03-03T06:50:12.387Z,64.20
2019-03-03T06:52:41.057Z,55.70
2019-03-03T06:55:11.483Z,65.43
2019-03-03T06:57:40.060Z,64.80
2019-03-03T07:00:14.372Z,57.43
2019-03-03T07:02:43.005Z,61.70
2019-03-03T07:05:11.744Z,67.87
2019-03-03T07:07:40.485Z,54.63
2019-03-03T07:10:11.528Z,69.73
2019-03-03T07:12:40.134Z,63.47
2019-03-03T07:15:13.879Z,66.37
2019-03-03T07:17:42.508Z,69.70
2019-03-03T07:20:12.845Z,60.10
2019-03-03T07:22:41.519Z,64.93
2019-03-03T07:25:14.647Z,68.07
2019-03-03T07:27:43.254Z,61.90
2019-03-03T07:30:17.734Z,65.87
2019-03-03T07:32:50.372Z,63.90
2019-03-03T07:35:19.010Z,59.50
2019-03-03T07:37:47.619Z,65.17
2019-03-03T07:40:16.242Z,67.20
2019-03-03T07:42:44.856Z,67.13
2019-03-03T07:45:15.135Z,65.33
2019-03-03T07:47:43.711Z,89.53
2019-03-03T07:50:12.376Z,74.70
2019-03-03T07:52:40.853Z,74.27
2019-03-03T07:55:10.522Z,82.70
2019-03-03T07:57:39.084Z,67.63
2019-03-03T08:00:10.797Z,64.80
2019-03-03T08:02:39.423Z,71.87
2019-03-03T08:05:09.504Z,72.63
2019-03-03T08:07:38.133Z,73.57
2019-03-03T08:10:09.672Z,68.43
2019-03-03T08:12:38.344Z,70.63
2019-03-03T08:15:09.383Z,62.40
2019-03-03T08:17:38.018Z,73.30
2019-03-03T08:20:09.707Z,69.80
2019-03-03T08:22:38.351Z,67.83
2019-03-03T08:25:08.946Z,67.70
2019-03-03T08:27:37.590Z,74.27
2019-03-03T08:30:16.433Z,74.87
2019-03-03T08:32:45.035Z,65.53
2019-03-03T08:35:24.717Z,70.83
2019-03-03T08:37:56.160Z,70.17
2019-03-03T08:40:24.801Z,68.17
2019-03-03T08:43:06.936Z,66.93
2019-03-03T08:45:37.245Z,66.20
2019-03-03T08:48:10.539Z,75.67
2019-03-03T08:50:52.783Z,85.90
2019-03-03T08:53:28.972Z,74.97
2019-03-03T08:56:01.855Z,70.83
2019-03-03T08:58:40.986Z,69.50
2019-03-03T09:01:20.306Z,68.60
2019-03-03T09:04:05.505Z,71.73
2019-03-03T09:06:38.371Z,68.40
2019-03-03T09:09:12.044Z,73.80
2019-03-03T09:11:44.070Z,75.57
2019-03-03T09:14:17.054Z,74.03
2019-03-03T09:16:48.386Z,80.07
2019-03-03T09:19:24.834Z,77.80
2019-03-03T09:22:11.445Z,77.03
2019-03-03T09:24:41.780Z,74.30
2019-03-03T09:27:18.012Z,82.53
2019-03-03T09:29:48.258Z,74.63
2019-03-03T09:32:18.394Z,82.03
2019-03-03T09:34:57.960Z,77.20
2019-03-03T09:37:43.179Z,85.57
2019-03-03T09:40:13.493Z,77.57
2019-03-03T09:42:46.549Z,77.07
2019-03-03T09:45:16.863Z,88.23
2019-03-03T09:47:47.129Z,86.23
2019-03-03T09:50:23.103Z,97.47
2019-03-03T09:52:56.381Z,89.63
2019-03-03T09:55:38.965Z,95.77
2019-03-03T09:58:18.021Z,95.10
2019-03-03T10:01:00.403Z,94.53
2019-03-03T10:03:36.126Z,99.63
2019-03-03T10:06:09.273Z,88.23
2019-03-03T10:08:39.521Z,91.20
2019-03-03T10:11:22.073Z,91.80
2019-03-03T10:13:55.068Z,86.27
2019-03-03T10:16:28.303Z,81.70
2019-03-03T10:19:10.718Z,87.50
2019-03-03T10:21:43.840Z,83.50
2019-03-03T10:24:14.109Z,81.07
2019-03-03T10:27:02.634Z,90.00
2019-03-03T10:29:38.629Z,87.07
2019-03-03T10:32:18.041Z,83.63
2019-03-03T10:34:48.335Z,83.50
2019-03-03T10:37:21.270Z,85.57
2019-03-03T10:40:03.127Z,73.67
2019-03-03T10:42:35.952Z,72.03
2019-03-03T10:45:10.297Z,67.37
2019-03-03T10:47:49.726Z,68.13
2019-03-03T10:50:36.300Z,65.67
2019-03-03T10:53:06.782Z,63.23
2019-03-03T10:55:37.098Z,65.87
2019-03-03T10:58:10.141Z,63.83
2019-03-03T11:00:49.155Z,69.07
2019-03-03T11:03:25.173Z,67.83
2019-03-03T11:05:55.440Z,52.00
2019-03-03T11:08:42.140Z,52.07
2019-03-03T11:11:21.368Z,47.17
2019-03-03T11:13:56.627Z,53.57
2019-03-03T11:16:39.177Z,49.07
2019-03-03T11:19:20.049Z,47.97
2019-03-03T11:22:06.416Z,40.57
2019-03-03T11:24:39.375Z,44.03
2019-03-03T11:27:26.177Z,48.57
2019-03-03T11:30:05.424Z,47.90
2019-03-03T11:32:41.830Z,49.97
2019-03-03T11:35:20.958Z,47.07
2019-03-03T11:37:57.120Z,43.43
2019-03-03T11:40:27.933Z,47.67
2019-03-03T11:43:14.435Z,44.83
2019-03-03T11:45:47.691Z,47.67
2019-03-03T11:48:34.349Z,42.43
2019-03-03T11:51:10.694Z,47.87
2019-03-03T11:53:56.031Z,45.40
2019-03-03T11:56:26.232Z,46.57
2019-03-03T11:58:59.168Z,58.03
2019-03-03T12:01:35.406Z,45.10
2019-03-03T12:04:11.713Z,46.53
2019-03-03T12:06:46.756Z,42.73
2019-03-03T12:09:29.521Z,38.67
2019-03-03T12:12:05.766Z,42.17
2019-03-03T12:14:52.593Z,41.20
2019-03-03T12:17:25.841Z,45.87
2019-03-03T12:20:08.395Z,41.87
2019-03-03T12:22:47.484Z,40.97
2019-03-03T12:25:32.860Z,37.13
2019-03-03T12:28:09.405Z,41.00
2019-03-03T12:30:54.840Z,44.83
2019-03-03T12:33:25.136Z,41.13
2019-03-03T12:35:58.393Z,37.83
2019-03-03T12:38:34.499Z,46.10
2019-03-03T12:41:10.958Z,52.00
2019-03-03T12:43:56.418Z,45.50
2019-03-03T12:46:32.229Z,45.20
2019-03-03T12:49:05.400Z,36.63
2019-03-03T12:52:01.262Z,40.47
2019-03-03T12:54:34.459Z,38.93
2019-03-03T12:57:10.394Z,38.97
2019-03-03T12:59:46.520Z,37.00
2019-03-03T13:02:33.185Z,33.90
2019-03-03T13:05:12.148Z,39.23
2019-03-03T13:07:50.784Z,34.50
2019-03-03T13:10:23.776Z,37.60
2019-03-03T13:12:59.673Z,39.30
2019-03-03T13:15:33.932Z,41.93
2019-03-03T13:18:20.301Z,36.77
2019-03-03T13:21:06.401Z,37.53
2019-03-03T13:23:48.844Z,38.97
2019-03-03T13:26:35.593Z,36.10
2019-03-03T13:29:11.975Z,37.53
2019-03-03T13:31:58.680Z,35.70
2019-03-03T13:34:37.958Z,36.00
2019-03-03T13:37:13.835Z,37.73
2019-03-03T13:39:46.490Z,45.20
2019-03-03T13:42:32.122Z,35.80
2019-03-03T13:45:00.766Z,35.83
2019-03-03T13:47:29.309Z,38.37
2019-03-03T13:49:57.979Z,38.90
2019-03-03T13:52:26.656Z,39.73
2019-03-03T13:54:55.212Z,39.33
2019-03-03T13:57:23.881Z,36.77
2019-03-03T13:59:52.526Z,40.80
2019-03-03T14:02:21.155Z,35.60
2019-03-03T14:04:49.838Z,38.07
2019-03-03T14:07:18.471Z,39.17
2019-03-03T14:09:47.047Z,37.93
2019-03-03T14:12:15.603Z,39.47
2019-03-03T14:14:44.278Z,38.93
2019-03-03T14:17:12.832Z,34.80
2019-03-03T14:19:41.514Z,31.20
2019-03-03T14:22:10.141Z,35.60
2019-03-03T14:24:38.819Z,41.13
2019-03-03T14:27:10.610Z,37.50
2019-03-03T14:29:37.779Z,40.40
2019-03-03T14:32:06.411Z,38.63
2019-03-03T14:34:35.103Z,45.63
2019-03-03T14:37:03.783Z,42.00
2019-03-03T14:39:32.423Z,39.17
2019-03-03T14:42:01.061Z,42.73
2019-03-03T14:44:29.729Z,43.97
2019-03-03T14:46:58.292Z,47.60
2019-03-03T14:49:26.940Z,63.83
2019-03-03T14:51:55.621Z,36.97
2019-03-03T14:54:24.093Z,39.40
2019-03-03T14:56:52.765Z,35.43
2019-03-03T14:59:21.330Z,34.20
2019-03-03T15:01:50.005Z,30.87
2019-03-03T15:04:18.641Z,32.27
2019-03-03T15:06:47.248Z,31.33
2019-03-03T15:09:17.520Z,28.47
2019-03-03T15:11:46.141Z,22.40
2019-03-03T15:14:14.768Z,24.07
2019-03-03T15:16:43.402Z,20.93
2019-03-03T15:19:12.005Z,20.03
2019-03-03T15:21:40.642Z,25.53
2019-03-03T15:24:09.416Z,20.73
2019-03-03T15:26:38.046Z,23.23
2019-03-03T15:29:06.833Z,20.73
2019-03-03T15:31:37.949Z,23.00
2019-03-03T15:34:06.545Z,23.53
2019-03-03T15:36:35.221Z,23.47
2019-03-03T15:39:05.292Z,23.67
2019-03-03T15:41:33.959Z,21.47
2019-03-03T15:44:02.797Z,23.93
2019-03-03T15:46:31.422Z,22.93
2019-03-03T15:49:00.101Z,24.67
2019-03-03T15:51:28.671Z,21.33
2019-03-03T15:54:00.039Z,24.93
2019-03-03T15:56:28.599Z,25.53
2019-03-03T15:59:00.239Z,26.13
2019-03-03T16:01:28.945Z,28.37
2019-03-03T16:03:57.544Z,28.77
2019-03-03T16:06:26.218Z,25.13
2019-03-03T16:08:54.710Z,31.10
2019-03-03T16:11:23.391Z,25.37
2019-03-03T16:13:51.947Z,26.10
2019-03-03T16:16:20.510Z,25.00
2019-03-03T16:18:49.183Z,24.20
2019-03-03T16:21:17.810Z,28.27
2019-03-03T16:23:46.424Z,27.20
2019-03-03T16:26:15.049Z,26.43
2019-03-03T16:28:43.531Z,26.90
2019-03-03T16:31:12.207Z,27.90
2019-03-03T16:33:40.760Z,49.00
2019-03-03T16:36:12.125Z,60.53
2019-03-03T16:38:40.734Z,115.40
2019-03-03T16:41:09.341Z,118.83
2019-03-03T16:43:40.984Z,91.83
2019-03-03T16:46:09.650Z,80.27
2019-03-03T16:48:38.251Z,74.60
2019-03-03T16:51:06.924Z,57.50
2019-03-03T16:53:35.477Z,67.87
2019-03-03T16:56:04.149Z,70.77
2019-03-03T16:58:32.832Z,63.73
2019-03-03T17:01:01.448Z,56.50
2019-03-03T17:03:30.119Z,54.80
2019-03-03T17:06:01.334Z,47.47
2019-03-03T17:08:29.910Z,43.63
2019-03-03T17:10:58.475Z,44.90
2019-03-03T17:13:29.918Z,42.00
2019-03-03T17:15:58.843Z,38.50
2019-03-03T17:18:27.765Z,42.27
2019-03-03T17:20:56.379Z,37.27
2019-03-03T17:23:25.045Z,40.43
2019-03-03T17:25:53.677Z,38.93
2019-03-03T17:28:22.301Z,44.57
2019-03-03T17:30:50.987Z,45.10
2019-03-03T17:33:22.309Z,42.87
2019-03-03T17:35:50.874Z,48.10
2019-03-03T17:38:19.477Z,45.10
2019-03-03T17:40:48.104Z,48.40
2019-03-03T17:43:16.814Z,52.93
2019-03-03T17:45:45.441Z,74.20
2019-03-03T17:48:14.086Z,61.30
2019-03-03T17:50:42.648Z,106.67
2019-03-03T17:53:11.323Z,100.43
2019-03-03T17:55:39.884Z,117.27
2019-03-03T17:58:10.631Z,105.40
2019-03-03T18:00:40.573Z,111.10
2019-03-03T18:03:09.302Z,94.17
2019-03-03T18:05:37.860Z,101.23
2019-03-03T18:08:06.508Z,100.93
2019-03-03T18:10:35.118Z,94.50
2019-03-03T18:13:03.788Z,83.03
2019-03-03T18:15:32.485Z,88.63
2019-03-03T18:18:01.198Z,78.27
2019-03-03T18:20:29.813Z,89.53
2019-03-03T18:22:58.479Z,77.40
2019-03-03T18:25:27.159Z,77.70
2019-03-03T18:27:55.649Z,72.93
2019-03-03T18:30:25.981Z,69.97
2019-03-03T18:32:54.659Z,71.90
2019-03-03T18:35:23.276Z,88.67
2019-03-03T18:37:51.970Z,80.33
2019-03-03T18:40:25.360Z,68.87
2019-03-03T18:42:54.329Z,72.23
2019-03-03T18:45:23.671Z,61.80
2019-03-03T18:47:52.432Z,63.73
2019-03-03T18:50:23.409Z,66.97
2019-03-03T18:52:52.079Z,61.43
2019-03-03T18:55:20.708Z,61.43
2019-03-03T18:57:49.352Z,62.87
2019-03-03T19:00:23.704Z,56.43
2019-03-03T19:02:52.577Z,63.13
2019-03-03T19:05:21.409Z,59.23
2019-03-03T19:07:50.204Z,62.50
2019-03-03T19:10:21.514Z,63.03
2019-03-03T19:12:50.169Z,61.27
2019-03-03T19:15:20.356Z,59.13
2019-03-03T19:17:52.033Z,65.30
2019-03-03T19:20:21.616Z,63.97
2019-03-03T19:22:50.657Z,66.57
2019-03-03T19:25:19.668Z,66.77
2019-03-03T19:27:48.376Z,58.70
2019-03-03T19:30:19.959Z,62.13
2019-03-03T19:32:51.686Z,68.27
2019-03-03T19:35:23.226Z,61.07
2019-03-03T19:37:56.352Z,62.40
2019-03-03T19:40:24.996Z,60.97
2019-03-03T19:42:53.684Z,61.30
2019-03-03T19:45:28.740Z,57.07
2019-03-03T19:47:57.418Z,58.97
2019-03-03T19:50:26.047Z,62.30
2019-03-03T19:52:54.703Z,52.27
2019-03-03T19:55:23.443Z,69.73
2019-03-03T19:57:52.151Z,65.20
2019-03-03T20:00:35.093Z,63.43
2019-03-03T20:02:57.011Z,67.23
2019-03-03T20:05:25.702Z,71.13
2019-03-03T20:07:54.434Z,65.50
2019-03-03T20:10:23.114Z,98.23
2019-03-03T20:12:54.581Z,90.27
2019-03-03T20:15:23.198Z,79.73
2019-03-03T20:17:51.873Z,78.23
2019-03-03T20:20:21.409Z,76.20
2019-03-03T20:22:50.074Z,71.23
2019-03-03T20:25:18.669Z,70.13
2019-03-03T20:27:47.343Z,73.87
2019-03-03T20:30:23.411Z,79.23
2019-03-03T20:32:52.085Z,70.50
2019-03-03T20:35:20.711Z,80.90
2019-03-03T20:37:49.381Z,75.60
2019-03-03T20:40:22.955Z,70.57
2019-03-03T20:42:51.626Z,71.27
2019-03-03T20:45:25.272Z,71.57
2019-03-03T20:47:53.944Z,84.77
2019-03-03T20:50:22.664Z,99.93
2019-03-03T20:52:51.735Z,95.20
2019-03-03T20:55:31.234Z,103.20
2019-03-03T20:57:59.961Z,91.67
2019-03-03T21:00:29.884Z,91.07
2019-03-03T21:02:58.757Z,93.63
2019-03-03T21:05:27.781Z,88.90
2019-03-03T21:07:56.472Z,89.90
2019-03-03T21:10:26.103Z,91.93
2019-03-03T21:12:54.674Z,101.50
2019-03-03T21:15:23.360Z,129.83
2019-03-03T21:17:52.000Z,133.60
2019-03-03T21:20:24.655Z,142.70
2019-03-03T21:22:53.304Z,134.87
2019-03-03T21:25:24.295Z,134.93
2019-03-03T21:27:52.934Z,125.00
2019-03-03T21:30:26.255Z,128.67
2019-03-03T21:32:54.898Z,121.90
2019-03-03T21:35:23.977Z,134.10
2019-03-03T21:37:52.719Z,118.40
2019-03-03T21:40:22.362Z,117.37
2019-03-03T21:42:51.000Z,111.70
2019-03-03T21:45:32.097Z,104.87
2019-03-03T21:48:00.485Z,113.17
2019-03-03T21:50:30.164Z,109.03
2019-03-03T21:52:58.875Z,105.67
2019-03-03T21:55:27.469Z,99.57
2019-03-03T21:57:58.823Z,104.43
2019-03-03T22:00:43.295Z,99.47
2019-03-03T22:03:11.974Z,102.77
2019-03-03T22:05:40.656Z,101.80
2019-03-03T22:08:09.291Z,98.50
2019-03-03T22:10:37.855Z,96.07
2019-03-03T22:13:12.891Z,98.43
2019-03-03T22:15:41.520Z,95.33
2019-03-03T22:18:10.178Z,92.93
2019-03-03T22:20:38.842Z,100.57
2019-03-03T22:23:07.466Z,94.23
2019-03-03T22:25:36.168Z,89.00
2019-03-03T22:28:04.808Z,89.33
2019-03-03T22:30:33.359Z,101.53
2019-03-03T22:33:02.041Z,100.73
2019-03-03T22:35:30.604Z,101.00
2019-03-03T22:37:59.235Z,97.63
2019-03-03T22:40:27.913Z,118.17
2019-03-03T22:42:56.588Z,147.07
2019-03-03T22:45:28.539Z,132.70
2019-03-03T22:47:57.227Z,127.27
2019-03-03T22:50:25.861Z,122.83
2019-03-03T22:52:54.431Z,108.73
2019-03-03T22:55:23.107Z,105.10
2019-03-03T22:57:51.662Z,98.43
2019-03-03T23:00:34.341Z,99.57
2019-03-03T23:03:02.907Z,95.90
2019-03-03T23:05:53.890Z,82.13
2019-03-03T23:08:40.637Z,88.97
2019-03-03T23:11:20.471Z,84.57
2019-03-03T23:13:54.845Z,86.43
2019-03-03T23:16:39.281Z,90.93
2019-03-03T23:19:13.374Z,78.20
2019-03-03T23:22:08.206Z,70.23
2019-03-03T23:24:42.660Z,69.07
2019-03-03T23:27:11.219Z,76.90
2019-03-03T23:29:39.834Z,66.53
2019-03-03T23:32:08.478Z,69.07
2019-03-03T23:34:37.037Z,75.77
2019-03-03T23:37:05.723Z,74.50
2019-03-03T23:39:34.284Z,71.57
2019-03-03T23:42:02.947Z,68.97
2019-03-03T23:44:31.407Z,67.60
2019-03-03T23:46:59.978Z,70.93
2019-03-03T23:49:31.556Z,65.07
2019-03-03T23:52:00.232Z,66.97
2019-03-03T23:54:28.715Z,66.70
2019-03-03T23:56:57.207Z,68.77
2019-03-03T23:59:25.775Z,63.00
